createdAt,value
2018-12-05T00:00:22.932Z,98642.56
2018-12-05T00:00:54.530Z,98629.81
2018-12-05T00:01:26.129Z,98631.94
2018-12-05T00:01:57.726Z,98639.20
2018-12-05T00:02:29.318Z,98632.41
2018-12-05T00:03:00.921Z,98634.97
2018-12-05T00:03:32.570Z,98630.28
2018-12-05T00:04:04.162Z,98635.40
2018-12-05T00:04:35.764Z,98633.27
2018-12-05T00:05:07.358Z,98633.27
2018-12-05T00:05:38.950Z,98635.82
2018-12-05T00:06:10.568Z,98633.27
2018-12-05T00:06:42.165Z,98637.11
2018-12-05T00:07:13.772Z,98629.86
2018-12-05T00:07:45.384Z,98630.28
2018-12-05T00:08:16.992Z,98631.56
2018-12-05T00:08:48.600Z,98629.44
2018-12-05T00:09:20.198Z,98629.44
2018-12-05T00:09:51.814Z,98628.58
2018-12-05T00:10:23.410Z,98635.44
2018-12-05T00:10:55.006Z,98632.03
2018-12-05T00:11:26.598Z,98639.70
2018-12-05T00:11:58.212Z,98637.58
2018-12-05T00:12:29.825Z,98638.02
2018-12-05T00:13:01.419Z,98640.14
2018-12-05T00:13:33.018Z,98638.44
2018-12-05T00:14:04.638Z,98638.87
2018-12-05T00:14:36.252Z,98646.54
2018-12-05T00:15:08.019Z,98644.45
2018-12-05T00:15:39.615Z,98644.84
2018-12-05T00:16:11.201Z,98644.87
2018-12-05T00:16:42.794Z,98643.59
2018-12-05T00:17:14.404Z,98639.33
2018-12-05T00:17:46.016Z,98638.95
2018-12-05T00:18:17.629Z,98647.86
2018-12-05T00:18:49.265Z,98644.87
2018-12-05T00:19:20.848Z,98641.08
2018-12-05T00:19:52.449Z,98640.62
2018-12-05T00:20:24.037Z,98644.45
2018-12-05T00:20:55.648Z,98647.86
2018-12-05T00:21:27.247Z,98643.64
2018-12-05T00:21:58.860Z,98641.94
2018-12-05T00:22:30.464Z,98648.75
2018-12-05T00:23:02.071Z,98638.98
2018-12-05T00:23:33.666Z,98644.96
2018-12-05T00:24:05.292Z,98639.00
2018-12-05T00:24:36.896Z,98639.03
2018-12-05T00:25:08.490Z,98645.00
2018-12-05T00:25:40.076Z,98642.91
2018-12-05T00:26:11.674Z,98642.91
2018-12-05T00:26:43.266Z,98648.45
2018-12-05T00:27:14.863Z,98644.58
2018-12-05T00:27:46.459Z,98639.92
2018-12-05T00:28:18.054Z,98639.54
2018-12-05T00:28:49.674Z,98642.91
2018-12-05T00:29:21.261Z,98645.05
2018-12-05T00:29:52.868Z,98642.48
2018-12-05T00:30:24.477Z,98677.86
2018-12-05T00:30:56.084Z,98642.10
2018-12-05T00:31:27.678Z,98642.95
2018-12-05T00:31:59.288Z,98645.55
2018-12-05T00:32:30.886Z,98641.30
2018-12-05T00:33:02.491Z,98643.84
2018-12-05T00:33:34.081Z,98649.39
2018-12-05T00:34:05.705Z,98648.54
2018-12-05T00:34:37.307Z,98646.02
2018-12-05T00:35:08.901Z,98650.28
2018-12-05T00:35:40.494Z,98653.69
2018-12-05T00:36:12.082Z,98644.78
2018-12-05T00:36:43.674Z,98655.01
2018-12-05T00:37:15.279Z,98652.03
2018-12-05T00:37:46.878Z,98651.21
2018-12-05T00:38:18.479Z,98649.94
2018-12-05T00:38:50.102Z,98648.66
2018-12-05T00:39:21.697Z,98649.94
2018-12-05T00:39:53.300Z,98651.64
2018-12-05T00:40:24.893Z,98648.66
2018-12-05T00:40:56.503Z,98654.20
2018-12-05T00:41:28.098Z,98649.08
2018-12-05T00:41:59.709Z,98653.30
2018-12-05T00:42:31.331Z,98657.56
2018-12-05T00:43:02.939Z,98652.87
2018-12-05T00:43:34.547Z,98649.47
2018-12-05T00:44:06.184Z,98654.97
2018-12-05T00:44:37.781Z,98657.52
2018-12-05T00:45:09.387Z,98657.91
2018-12-05T00:45:40.992Z,98657.48
2018-12-05T00:46:12.595Z,98657.05
2018-12-05T00:46:44.209Z,98652.33
2018-12-05T00:47:15.820Z,98652.33
2018-12-05T00:47:47.401Z,98653.99
2018-12-05T00:48:18.994Z,98655.69
2018-12-05T00:48:50.619Z,98656.09
2018-12-05T00:49:22.232Z,98653.95
2018-12-05T00:49:53.823Z,98657.36
2018-12-05T00:50:25.423Z,98659.06
2018-12-05T00:50:57.021Z,98663.72
2018-12-05T00:51:28.630Z,98657.32
2018-12-05T00:52:00.242Z,98659.02
2018-12-05T00:52:31.837Z,98657.28
2018-12-05T00:53:03.432Z,98663.25
2018-12-05T00:53:35.030Z,98665.38
2018-12-05T00:54:06.650Z,98653.10
2018-12-05T00:54:38.265Z,98661.92
2018-12-05T00:55:09.858Z,98671.27
2018-12-05T00:55:41.460Z,98666.57
2018-12-05T00:56:13.071Z,98672.96
2018-12-05T00:56:44.669Z,98669.98
2018-12-05T00:57:16.276Z,98672.11
2018-12-05T00:57:47.889Z,98666.98
2018-12-05T00:58:19.580Z,98669.55
2018-12-05T00:58:51.173Z,98668.66
2018-12-05T00:59:22.789Z,98670.36
2018-12-05T00:59:54.376Z,98676.33
2018-12-05T01:00:25.970Z,98671.20
2018-12-05T01:00:57.572Z,98670.32
2018-12-05T01:01:29.161Z,98667.75
2018-12-05T01:02:00.760Z,98660.64
2018-12-05T01:02:32.353Z,98676.28
2018-12-05T01:03:03.946Z,98680.97
2018-12-05T01:03:35.556Z,98682.21
2018-12-05T01:04:07.192Z,98678.38
2018-12-05T01:04:38.789Z,98680.93
2018-12-05T01:05:10.393Z,98680.93
2018-12-05T01:05:41.990Z,98681.78
2018-12-05T01:06:13.597Z,98680.92
2018-12-05T01:06:45.208Z,98679.22
2018-12-05T01:07:16.816Z,98674.92
2018-12-05T01:07:48.410Z,98680.03
2018-12-05T01:08:20.018Z,98681.74
2018-12-05T01:08:51.614Z,98685.58
2018-12-05T01:09:23.200Z,98677.48
2018-12-05T01:09:54.812Z,98677.47
2018-12-05T01:10:26.416Z,98679.17
2018-12-05T01:10:58.028Z,98676.63
2018-12-05T01:11:29.637Z,98679.56
2018-12-05T01:12:01.256Z,98682.13
2018-12-05T01:12:32.854Z,98666.95
2018-12-05T01:13:04.436Z,98680.84
2018-12-05T01:13:36.034Z,98680.42
2018-12-05T01:14:07.656Z,98683.83
2018-12-05T01:14:39.301Z,98682.13
2018-12-05T01:15:10.888Z,98680.42
2018-12-05T01:15:42.484Z,98679.14
2018-12-05T01:16:14.078Z,98682.97
2018-12-05T01:16:45.688Z,98682.55
2018-12-05T01:17:17.281Z,98686.39
2018-12-05T01:17:48.884Z,98687.67
2018-12-05T01:18:20.481Z,98687.24
2018-12-05T01:18:52.096Z,98681.70
2018-12-05T01:19:23.703Z,98686.81
2018-12-05T01:19:55.298Z,98683.02
2018-12-05T01:20:26.889Z,98690.65
2018-12-05T01:20:58.491Z,98667.41
2018-12-05T01:21:30.086Z,98682.98
2018-12-05T01:22:01.689Z,98690.23
2018-12-05T01:22:33.282Z,98685.58
2018-12-05T01:23:04.889Z,98684.72
2018-12-05T01:23:36.486Z,98690.70
2018-12-05T01:24:08.222Z,98688.56
2018-12-05T01:24:39.828Z,98686.85
2018-12-05T01:25:11.430Z,98687.28
2018-12-05T01:25:43.052Z,98688.98
2018-12-05T01:26:14.654Z,98690.27
2018-12-05T01:26:46.250Z,98662.86
2018-12-05T01:27:17.843Z,98692.44
2018-12-05T01:27:49.452Z,98689.03
2018-12-05T01:28:21.063Z,98690.31
2018-12-05T01:28:52.668Z,98689.88
2018-12-05T01:29:24.285Z,98694.14
2018-12-05T01:29:55.885Z,98696.67
2018-12-05T01:30:27.561Z,98693.25
2018-12-05T01:30:59.135Z,98585.53
2018-12-05T01:31:30.734Z,98689.45
2018-12-05T01:32:02.334Z,98694.14
2018-12-05T01:32:33.920Z,98692.83
2018-12-05T01:33:05.515Z,98692.41
2018-12-05T01:33:37.110Z,98695.42
2018-12-05T01:34:08.705Z,98694.16
2018-12-05T01:34:40.669Z,98694.62
2018-12-05T01:35:12.275Z,98697.61
2018-12-05T01:35:43.870Z,98695.90
2018-12-05T01:36:15.482Z,98698.88
2018-12-05T01:36:47.081Z,98695.51
2018-12-05T01:37:18.687Z,98696.36
2018-12-05T01:37:50.293Z,98697.22
2018-12-05T01:38:21.886Z,98699.39
2018-12-05T01:38:53.482Z,98696.41
2018-12-05T01:39:25.091Z,98693.04
2018-12-05T01:39:56.687Z,98691.34
2018-12-05T01:40:28.298Z,98689.67
2018-12-05T01:40:59.914Z,98695.25
2018-12-05T01:41:31.528Z,98694.41
2018-12-05T01:42:03.108Z,98694.91
2018-12-05T01:42:34.712Z,98695.34
2018-12-05T01:43:06.298Z,98698.75
2018-12-05T01:43:43.528Z,98696.23
2018-12-05T01:44:15.164Z,98692.81
2018-12-05T01:44:46.782Z,98695.38
2018-12-05T01:45:18.378Z,98694.95
2018-12-05T01:45:49.997Z,98697.12
2018-12-05T01:46:21.608Z,98703.52
2018-12-05T01:46:53.199Z,98707.39
2018-12-05T01:47:24.807Z,98700.17
2018-12-05T01:47:56.395Z,98701.03
2018-12-05T01:48:27.995Z,98701.03
2018-12-05T01:48:59.627Z,98704.87
2018-12-05T01:49:31.265Z,98705.30
2018-12-05T01:50:02.858Z,98706.61
2018-12-05T01:50:34.454Z,98710.45
2018-12-05T01:51:06.050Z,98709.59
2018-12-05T01:51:37.645Z,98710.05
2018-12-05T01:52:09.252Z,98707.92
2018-12-05T01:52:40.849Z,98709.20
2018-12-05T01:53:12.455Z,98711.33
2018-12-05T01:53:44.066Z,98707.04
2018-12-05T01:54:15.677Z,98713.47
2018-12-05T01:54:47.302Z,98708.78
2018-12-05T01:55:18.899Z,98714.78
2018-12-05T01:55:50.496Z,98710.52
2018-12-05T01:56:22.095Z,98712.22
2018-12-05T01:56:53.680Z,98719.04
2018-12-05T01:57:25.288Z,98714.78
2018-12-05T01:57:56.896Z,98710.12
2018-12-05T01:58:28.500Z,98713.93
2018-12-05T01:59:00.112Z,98716.95
2018-12-05T01:59:31.748Z,98716.52
2018-12-05T02:00:03.343Z,98716.09
2018-12-05T02:00:34.938Z,98713.11
2018-12-05T02:01:06.520Z,98711.87
2018-12-05T02:01:38.113Z,98714.00
2018-12-05T02:02:09.707Z,98718.27
2018-12-05T02:02:41.301Z,98714.00
2018-12-05T02:03:12.894Z,98715.28
2018-12-05T02:03:44.490Z,98719.97
2018-12-05T02:04:16.092Z,98714.85
2018-12-05T02:04:47.723Z,98719.54
2018-12-05T02:05:19.328Z,98722.95
2018-12-05T02:05:50.968Z,98714.46
2018-12-05T02:06:22.558Z,98718.27
2018-12-05T02:06:54.169Z,98724.23
2018-12-05T02:07:25.770Z,98718.26
2018-12-05T02:07:57.361Z,98719.08
2018-12-05T02:08:28.965Z,98718.23
2018-12-05T02:09:00.587Z,98716.52
2018-12-05T02:09:32.210Z,98720.36
2018-12-05T02:10:03.793Z,98716.95
2018-12-05T02:10:35.396Z,98713.11
2018-12-05T02:11:06.993Z,98722.48
2018-12-05T02:11:38.599Z,98716.52
2018-12-05T02:12:10.212Z,98714.81
2018-12-05T02:12:41.805Z,98714.74
2018-12-05T02:13:13.402Z,98715.52
2018-12-05T02:13:44.998Z,98713.35
2018-12-05T02:14:16.613Z,98713.31
2018-12-05T02:14:48.238Z,98715.45
2018-12-05T02:15:19.831Z,98710.30
2018-12-05T02:15:51.435Z,98717.92
2018-12-05T02:16:23.044Z,98710.68
2018-12-05T02:16:54.642Z,98709.41
2018-12-05T02:17:26.238Z,98713.63
2018-12-05T02:17:57.832Z,98713.20
2018-12-05T02:18:29.416Z,98711.03
2018-12-05T02:19:00.996Z,98719.09
2018-12-05T02:19:32.632Z,98719.91
2018-12-05T02:20:04.253Z,98716.53
2018-12-05T02:20:35.860Z,98715.17
2018-12-05T02:21:07.464Z,98715.63
2018-12-05T02:21:39.080Z,98718.19
2018-12-05T02:22:10.674Z,98712.99
2018-12-05T02:22:42.272Z,98715.98
2018-12-05T02:23:13.866Z,98718.92
2018-12-05T02:23:45.448Z,98712.56
2018-12-05T02:24:17.046Z,98712.10
2018-12-05T02:24:48.669Z,98714.23
2018-12-05T02:25:20.276Z,98709.97
2018-12-05T02:25:51.874Z,98714.62
2018-12-05T02:26:23.466Z,98715.04
2018-12-05T02:26:55.049Z,98711.20
2018-12-05T02:27:26.668Z,98718.41
2018-12-05T02:27:58.280Z,98679.06
2018-12-05T02:28:29.864Z,98711.16
2018-12-05T02:29:01.455Z,98712.44
2018-12-05T02:29:38.947Z,98713.25
2018-12-05T02:30:10.621Z,98715.34
2018-12-05T02:30:42.214Z,98712.39
2018-12-05T02:31:13.814Z,98717.48
2018-12-05T02:31:45.409Z,98710.66
2018-12-05T02:32:16.996Z,98712.79
2018-12-05T02:32:48.599Z,98717.48
2018-12-05T02:33:20.199Z,98714.06
2018-12-05T02:33:51.812Z,98714.91
2018-12-05T02:34:23.421Z,98712.35
2018-12-05T02:34:55.033Z,98713.63
2018-12-05T02:35:26.616Z,98709.80
2018-12-05T02:35:58.213Z,98709.80
2018-12-05T02:36:29.821Z,98706.39
2018-12-05T02:37:01.430Z,98708.09
2018-12-05T02:37:33.030Z,98681.54
2018-12-05T02:38:04.626Z,98711.97
2018-12-05T02:38:36.232Z,98715.77
2018-12-05T02:39:07.812Z,98711.97
2018-12-05T02:39:39.446Z,98711.51
2018-12-05T02:40:11.066Z,98714.06
2018-12-05T02:40:42.676Z,98714.91
2018-12-05T02:41:14.271Z,98711.93
2018-12-05T02:41:45.868Z,98714.92
2018-12-05T02:42:17.466Z,98715.77
2018-12-05T02:42:49.061Z,98717.91
2018-12-05T02:43:20.673Z,98714.06
2018-12-05T02:43:52.270Z,98708.09
2018-12-05T02:44:23.865Z,98715.81
2018-12-05T02:44:55.496Z,98714.53
2018-12-05T02:45:27.098Z,98716.23
2018-12-05T02:45:58.700Z,98711.97
2018-12-05T02:46:30.306Z,98712.83
2018-12-05T02:47:01.885Z,98711.55
2018-12-05T02:47:33.485Z,98714.53
2018-12-05T02:48:05.096Z,98711.98
2018-12-05T02:48:36.690Z,98711.55
2018-12-05T02:49:08.288Z,98715.85
2018-12-05T02:49:39.909Z,98713.72
2018-12-05T02:50:11.540Z,98722.67
2018-12-05T02:50:43.124Z,98716.32
2018-12-05T02:51:14.726Z,98715.94
2018-12-05T02:51:46.335Z,98719.34
2018-12-05T02:52:17.934Z,98715.09
2018-12-05T02:52:49.521Z,98712.53
2018-12-05T02:53:21.117Z,98718.53
2018-12-05T02:53:52.790Z,98710.44
2018-12-05T02:54:24.390Z,98721.95
2018-12-05T02:54:56.000Z,98718.14
2018-12-05T02:55:27.612Z,98721.09
2018-12-05T02:55:59.225Z,98718.15
2018-12-05T02:56:30.831Z,98718.16
2018-12-05T02:57:02.461Z,98718.62
2018-12-05T02:57:34.054Z,98720.36
2018-12-05T02:58:05.646Z,98717.80
2018-12-05T02:58:37.247Z,98722.96
2018-12-05T02:59:08.856Z,98718.73
2018-12-05T02:59:40.464Z,98725.14
2018-12-05T03:00:12.091Z,98726.45
2018-12-05T03:00:43.683Z,98729.86
2018-12-05T03:01:15.300Z,98727.34
2018-12-05T03:01:46.911Z,98723.97
2018-12-05T03:02:18.511Z,98731.22
2018-12-05T03:02:50.111Z,98726.98
2018-12-05T03:03:21.697Z,98725.28
2018-12-05T03:03:53.310Z,98733.38
2018-12-05T03:04:24.912Z,98727.45
2018-12-05T03:04:56.539Z,98722.77
2018-12-05T03:05:28.143Z,98724.90
2018-12-05T03:05:59.753Z,98726.64
2018-12-05T03:06:31.365Z,98722.80
2018-12-05T03:07:03.077Z,98724.51
2018-12-05T03:07:34.753Z,98727.48
2018-12-05T03:08:06.340Z,98724.94
2018-12-05T03:08:37.956Z,98726.21
2018-12-05T03:09:09.555Z,98729.20
2018-12-05T03:09:41.151Z,98724.97
2018-12-05T03:10:12.770Z,98724.97
2018-12-05T03:10:44.361Z,98726.67
2018-12-05T03:11:15.953Z,98724.97
2018-12-05T03:11:47.565Z,98728.80
2018-12-05T03:12:19.163Z,98728.84
2018-12-05T03:12:50.744Z,98727.56
2018-12-05T03:13:22.333Z,98728.41
2018-12-05T03:13:53.944Z,98685.70
2018-12-05T03:14:25.556Z,98730.55
2018-12-05T03:14:57.190Z,98725.01
2018-12-05T03:15:28.789Z,98724.62
2018-12-05T03:16:00.409Z,98727.59
2018-12-05T03:16:32.011Z,98731.00
2018-12-05T03:17:03.630Z,98727.63
2018-12-05T03:17:35.225Z,98730.61
2018-12-05T03:18:06.823Z,98726.78
2018-12-05T03:18:38.438Z,98729.38
2018-12-05T03:19:10.034Z,98728.95
2018-12-05T03:19:41.630Z,98728.55
2018-12-05T03:20:13.254Z,98732.39
2018-12-05T03:20:44.869Z,98731.11
2018-12-05T03:21:16.482Z,98730.72
2018-12-05T03:21:48.078Z,98732.00
2018-12-05T03:22:19.671Z,98731.15
2018-12-05T03:22:51.262Z,98731.58
2018-12-05T03:23:22.854Z,98736.69
2018-12-05T03:23:54.450Z,98734.13
2018-12-05T03:24:26.050Z,98734.13
2018-12-05T03:24:57.686Z,98730.72
2018-12-05T03:25:29.311Z,98732.88
2018-12-05T03:26:00.901Z,98733.73
2018-12-05T03:26:32.494Z,98728.63
2018-12-05T03:27:04.098Z,98729.91
2018-12-05T03:27:35.691Z,98729.48
2018-12-05T03:28:07.289Z,98727.73
2018-12-05T03:28:38.886Z,98733.67
2018-12-05T03:29:10.482Z,98734.91
2018-12-05T03:29:42.078Z,98732.36
2018-12-05T03:30:13.693Z,98731.93
2018-12-05T03:30:45.292Z,98735.34
2018-12-05T03:31:16.897Z,98739.14
2018-12-05T03:31:48.495Z,98735.73
2018-12-05T03:32:20.114Z,98738.67
2018-12-05T03:32:51.712Z,98742.09
2018-12-05T03:33:23.329Z,98740.34
2018-12-05T03:33:54.958Z,98743.33
2018-12-05T03:34:26.562Z,98737.39
2018-12-05T03:34:58.160Z,98744.18
2018-12-05T03:35:35.556Z,98746.73
2018-12-05T03:36:07.151Z,98749.72
2018-12-05T03:36:38.747Z,98747.59
2018-12-05T03:37:10.383Z,98749.30
2018-12-05T03:37:41.975Z,98746.34
2018-12-05T03:38:13.769Z,98748.87
2018-12-05T03:38:45.366Z,98747.59
2018-12-05T03:39:16.958Z,98749.30
2018-12-05T03:39:48.566Z,98750.14
2018-12-05T03:40:20.195Z,98753.52
2018-12-05T03:40:51.808Z,98746.62
2018-12-05T03:41:23.400Z,98754.58
2018-12-05T03:41:54.985Z,98756.09
2018-12-05T03:42:26.595Z,98752.53
2018-12-05T03:42:58.208Z,98759.38
2018-12-05T03:43:29.811Z,98756.48
2018-12-05T03:44:01.406Z,98758.66
2018-12-05T03:44:33.007Z,98750.63
2018-12-05T03:45:04.664Z,98754.08
2018-12-05T03:45:36.279Z,98755.86
2018-12-05T03:46:07.879Z,98754.19
2018-12-05T03:46:39.497Z,98753.41
2018-12-05T03:47:11.109Z,98751.28
2018-12-05T03:47:42.715Z,98754.73
2018-12-05T03:48:14.337Z,98744.53
2018-12-05T03:48:45.948Z,98752.20
2018-12-05T03:49:17.536Z,98751.78
2018-12-05T03:49:49.129Z,98747.02
2018-12-05T03:50:20.758Z,98749.50
2018-12-05T03:50:52.363Z,98746.83
2018-12-05T03:51:23.974Z,98758.23
2018-12-05T03:51:55.590Z,98752.60
2018-12-05T03:52:27.189Z,98751.63
2018-12-05T03:52:58.799Z,98754.11
2018-12-05T03:53:30.414Z,98752.74
2018-12-05T03:54:02.019Z,98751.39
2018-12-05T03:54:33.626Z,98754.41
2018-12-05T03:55:05.222Z,98757.52
2018-12-05T03:55:36.830Z,98759.34
2018-12-05T03:56:08.427Z,98759.42
2018-12-05T03:56:40.045Z,98755.67
2018-12-05T03:57:11.669Z,98759.97
2018-12-05T03:57:43.266Z,98754.11
2018-12-05T03:58:14.875Z,98752.98
2018-12-05T03:58:46.530Z,98757.75
2018-12-05T03:59:18.133Z,98756.08
2018-12-05T03:59:49.761Z,98754.83
2018-12-05T04:00:21.400Z,98757.78
2018-12-05T04:00:52.998Z,98753.09
2018-12-05T04:01:24.595Z,98734.55
2018-12-05T04:01:56.209Z,98749.33
2018-12-05T04:02:27.793Z,98753.59
2018-12-05T04:02:59.385Z,98751.45
2018-12-05T04:03:30.996Z,98751.42
2018-12-05T04:04:02.602Z,98749.72
2018-12-05T04:04:34.395Z,98747.55
2018-12-05T04:05:06.044Z,98748.83
2018-12-05T04:05:37.643Z,98761.58
2018-12-05T04:06:09.239Z,98755.61
2018-12-05T04:06:40.826Z,98759.88
2018-12-05T04:07:12.413Z,98759.45
2018-12-05T04:07:44.004Z,98757.75
2018-12-05T04:08:15.594Z,98756.86
2018-12-05T04:08:47.206Z,98753.02
2018-12-05T04:09:18.796Z,98756.44
2018-12-05T04:09:50.404Z,98753.88
2018-12-05T04:10:22.011Z,98755.15
2018-12-05T04:10:53.617Z,98756.43
2018-12-05T04:11:25.225Z,98758.98
2018-12-05T04:11:56.822Z,98756.00
2018-12-05T04:12:28.418Z,98759.41
2018-12-05T04:13:00.001Z,98756.47
2018-12-05T04:13:31.604Z,98761.58
2018-12-05T04:14:03.212Z,98760.73
2018-12-05T04:14:34.801Z,98760.34
2018-12-05T04:15:06.394Z,98765.84
2018-12-05T04:15:37.990Z,98764.14
2018-12-05T04:16:09.600Z,98764.56
2018-12-05T04:16:41.193Z,98758.23
2018-12-05T04:17:12.801Z,98765.02
2018-12-05T04:17:44.396Z,98760.38
2018-12-05T04:18:16.000Z,98762.50
2018-12-05T04:18:47.710Z,98765.06
2018-12-05T04:19:19.310Z,98759.95
2018-12-05T04:19:50.920Z,98759.95
2018-12-05T04:20:22.559Z,98764.63
2018-12-05T04:20:54.144Z,98766.80
2018-12-05T04:21:25.734Z,98755.72
2018-12-05T04:21:57.344Z,98762.53
2018-12-05T04:22:29.272Z,98766.41
2018-12-05T04:23:01.093Z,98763.42
2018-12-05T04:23:32.997Z,98762.17
2018-12-05T04:24:04.957Z,98763.03
2018-12-05T04:24:36.878Z,98761.75
2018-12-05T04:25:08.809Z,98764.73
2018-12-05T04:25:40.472Z,98760.90
2018-12-05T04:26:12.079Z,98771.16
2018-12-05T04:26:43.698Z,98764.77
2018-12-05T04:27:15.290Z,98767.36
2018-12-05T04:27:46.878Z,98769.06
2018-12-05T04:28:18.479Z,98766.96
2018-12-05T04:28:50.217Z,98770.38
2018-12-05T04:29:21.813Z,98767.39
2018-12-05T04:29:53.406Z,98766.11
2018-12-05T04:30:25.065Z,98768.24
2018-12-05T04:30:56.663Z,98768.27
2018-12-05T04:31:28.294Z,98773.38
2018-12-05T04:31:59.890Z,98773.84
2018-12-05T04:32:31.500Z,98770.44
2018-12-05T04:33:03.120Z,98771.32
2018-12-05T04:33:34.727Z,98767.91
2018-12-05T04:34:06.332Z,98767.09
2018-12-05T04:34:38.065Z,98773.48
2018-12-05T04:35:09.610Z,98771.35
2018-12-05T04:35:41.217Z,98773.05
2018-12-05T04:36:12.830Z,98771.78
2018-12-05T04:36:44.423Z,98772.23
2018-12-05T04:37:16.034Z,98770.10
2018-12-05T04:37:47.652Z,98770.53
2018-12-05T04:38:19.246Z,98773.55
2018-12-05T04:38:50.851Z,98773.11
2018-12-05T04:39:22.436Z,98776.52
2018-12-05T04:39:54.029Z,98771.41
2018-12-05T04:40:25.623Z,98775.28
2018-12-05T04:40:57.241Z,98770.16
2018-12-05T04:41:28.838Z,98775.70
2018-12-05T04:42:00.429Z,98779.11
2018-12-05T04:42:32.021Z,98777.44
2018-12-05T04:43:03.623Z,98774.84
2018-12-05T04:43:35.236Z,98779.96
2018-12-05T04:44:06.823Z,98774.03
2018-12-05T04:44:38.436Z,98776.16
2018-12-05T04:45:10.050Z,98775.73
2018-12-05T04:45:41.674Z,98778.31
2018-12-05T04:46:13.272Z,98777.04
2018-12-05T04:46:44.877Z,98783.00
2018-12-05T04:47:16.491Z,98772.78
2018-12-05T04:47:48.104Z,98782.58
2018-12-05T04:48:19.701Z,98781.33
2018-12-05T04:48:51.337Z,98777.92
2018-12-05T04:49:22.935Z,98780.02
2018-12-05T04:49:54.540Z,98780.48
2018-12-05T04:50:26.140Z,98780.05
2018-12-05T04:50:57.772Z,98778.34
2018-12-05T04:51:29.370Z,98779.66
2018-12-05T04:52:00.956Z,98777.52
2018-12-05T04:52:32.550Z,98780.08
2018-12-05T04:53:04.157Z,98779.23
2018-12-05T04:53:35.759Z,98783.48
2018-12-05T04:54:07.355Z,98783.91
2018-12-05T04:54:38.946Z,98783.91
2018-12-05T04:55:10.555Z,98783.48
2018-12-05T04:55:42.155Z,98783.02
2018-12-05T04:56:13.782Z,98784.77
2018-12-05T04:56:45.379Z,98785.58
2018-12-05T04:57:16.964Z,98786.04
2018-12-05T04:57:48.579Z,98781.78
2018-12-05T04:58:20.176Z,98785.61
2018-12-05T04:58:52.073Z,98783.45
2018-12-05T04:59:23.682Z,98784.73
2018-12-05T04:59:55.269Z,98784.30
2018-12-05T05:00:26.862Z,98787.29
2018-12-05T05:00:58.501Z,98780.47
2018-12-05T05:01:30.099Z,98788.11
2018-12-05T05:02:01.716Z,98783.42
2018-12-05T05:02:33.331Z,98783.42
2018-12-05T05:03:04.941Z,98789.36
2018-12-05T05:03:36.538Z,98784.28
2018-12-05T05:04:08.155Z,98790.21
2018-12-05T05:04:39.776Z,98786.77
2018-12-05T05:05:11.380Z,98788.45
2018-12-05T05:05:42.974Z,98792.28
2018-12-05T05:06:14.593Z,98782.48
2018-12-05T05:06:46.192Z,98794.38
2018-12-05T05:07:17.790Z,98788.42
2018-12-05T05:07:49.383Z,98790.94
2018-12-05T05:08:20.979Z,98791.38
2018-12-05T05:08:52.574Z,98790.48
2018-12-05T05:09:24.166Z,98785.77
2018-12-05T05:09:55.789Z,98785.31
2018-12-05T05:10:27.392Z,98789.12
2018-12-05T05:10:59.004Z,98791.67
2018-12-05T05:11:30.672Z,98788.66
2018-12-05T05:12:02.280Z,98785.25
2018-12-05T05:12:33.887Z,98792.03
2018-12-05T05:13:05.502Z,98794.98
2018-12-05T05:13:37.089Z,98794.98
2018-12-05T05:14:08.682Z,98793.67
2018-12-05T05:14:40.294Z,98797.05
2018-12-05T05:15:11.893Z,98796.20
2018-12-05T05:15:43.493Z,98796.16
2018-12-05T05:16:15.200Z,98794.00
2018-12-05T05:16:46.791Z,98799.08
2018-12-05T05:17:18.376Z,98799.08
2018-12-05T05:17:49.974Z,98796.95
2018-12-05T05:18:21.566Z,98795.17
2018-12-05T05:18:53.154Z,98796.42
2018-12-05T05:19:24.753Z,98798.98
2018-12-05T05:19:56.340Z,98799.41
2018-12-05T05:20:27.948Z,98803.20
2018-12-05T05:20:59.574Z,98804.48
2018-12-05T05:21:31.184Z,98804.02
2018-12-05T05:22:02.804Z,98803.17
2018-12-05T05:22:34.419Z,98807.01
2018-12-05T05:23:06.007Z,98806.97
2018-12-05T05:23:37.637Z,98803.14
2018-12-05T05:24:09.235Z,98803.98
2018-12-05T05:24:40.848Z,98806.12
2018-12-05T05:25:12.474Z,98812.09
2018-12-05T05:25:44.080Z,98811.66
2018-12-05T05:26:15.699Z,98809.95
2018-12-05T05:26:47.308Z,98811.66
2018-12-05T05:27:18.902Z,98811.23
2018-12-05T05:27:50.509Z,98812.94
2018-12-05T05:28:22.140Z,98821.03
2018-12-05T05:28:53.724Z,98808.70
2018-12-05T05:29:25.341Z,98821.07
2018-12-05T05:29:56.934Z,98812.55
2018-12-05T05:30:28.536Z,98813.83
2018-12-05T05:31:00.139Z,98812.97
2018-12-05T05:31:31.780Z,98812.13
2018-12-05T05:32:03.378Z,98811.70
2018-12-05T05:32:34.984Z,98814.25
2018-12-05T05:33:06.595Z,98800.33
2018-12-05T05:33:38.192Z,98812.19
2018-12-05T05:34:09.791Z,98811.34
2018-12-05T05:34:41.372Z,98813.50
2018-12-05T05:35:12.980Z,98810.09
2018-12-05T05:35:44.569Z,98810.98
2018-12-05T05:36:16.275Z,98816.52
2018-12-05T05:36:47.867Z,98816.95
2018-12-05T05:37:19.476Z,98816.98
2018-12-05T05:37:51.081Z,98816.98
2018-12-05T05:38:22.672Z,98816.58
2018-12-05T05:38:54.266Z,98814.45
2018-12-05T05:39:25.863Z,98811.08
2018-12-05T05:39:57.471Z,98814.48
2018-12-05T05:40:29.076Z,98816.61
2018-12-05T05:41:00.660Z,98815.34
2018-12-05T05:41:32.292Z,98811.50
2018-12-05T05:42:03.874Z,98817.92
2018-12-05T05:42:35.469Z,98811.11
2018-12-05T05:43:07.159Z,98816.68
2018-12-05T05:43:38.781Z,98821.37
2018-12-05T05:44:10.394Z,98819.27
2018-12-05T05:44:41.986Z,98815.89
2018-12-05T05:45:13.602Z,98820.58
2018-12-05T05:45:45.198Z,98818.02
2018-12-05T05:46:16.832Z,98824.87
2018-12-05T05:46:48.440Z,98825.75
2018-12-05T05:47:20.048Z,98827.03
2018-12-05T05:47:51.655Z,98827.03
2018-12-05T05:48:23.240Z,98829.19
2018-12-05T05:48:55.920Z,98827.48
2018-12-05T05:49:27.514Z,98824.50
2018-12-05T05:49:59.109Z,98829.19
2018-12-05T05:50:30.710Z,98829.64
2018-12-05T05:51:02.302Z,98830.19
2018-12-05T05:51:33.922Z,98825.41
2018-12-05T05:52:05.514Z,98829.70
2018-12-05T05:52:37.106Z,98828.00
2018-12-05T05:53:08.693Z,98830.16
2018-12-05T05:53:40.298Z,98824.20
2018-12-05T05:54:11.894Z,98822.52
2018-12-05T05:54:43.487Z,98828.48
2018-12-05T05:55:15.074Z,98827.23
2018-12-05T05:55:46.680Z,98829.36
2018-12-05T05:56:18.331Z,98823.83
2018-12-05T05:56:49.952Z,98831.95
2018-12-05T05:57:21.551Z,98828.11
2018-12-05T05:57:53.160Z,98823.88
2018-12-05T05:58:24.759Z,98828.56
2018-12-05T05:58:56.360Z,98827.74
2018-12-05T05:59:27.963Z,98821.34
2018-12-05T05:59:59.633Z,98834.98
2018-12-05T06:00:31.235Z,98836.28
2018-12-05T06:01:02.836Z,98825.63
2018-12-05T06:01:34.463Z,98830.28
2018-12-05T06:02:06.058Z,98825.63
2018-12-05T06:02:37.650Z,98833.30
2018-12-05T06:03:09.246Z,98832.44
2018-12-05T06:03:40.852Z,98833.33
2018-12-05T06:04:12.436Z,98832.05
2018-12-05T06:04:44.030Z,98833.31
2018-12-05T06:05:15.650Z,98838.03
2018-12-05T06:05:47.251Z,98839.31
2018-12-05T06:06:18.856Z,98836.36
2018-12-05T06:06:50.484Z,98839.77
2018-12-05T06:07:22.083Z,98836.78
2018-12-05T06:07:53.683Z,98837.20
2018-12-05T06:08:25.293Z,98836.78
2018-12-05T06:08:56.894Z,98834.25
2018-12-05T06:09:28.487Z,98838.50
2018-12-05T06:10:00.091Z,98831.69
2018-12-05T06:10:31.701Z,98832.55
2018-12-05T06:11:03.284Z,98835.13
2018-12-05T06:11:34.912Z,98827.91